RJFR

Details ICAO RJFR (KKJ)
Name NEW KITAKYUSHU
Region Japan
Timezone Asia/Tokyo (UTC+9.0)
Plans Departing 23
Arriving 32
Stats Elevation 21 ft / 6 m (AMSL)
Location 33.845940° 131.034689°
Runways 1
Magnetic Variation 7.574° W
Sunrise 2018-06-24 20:07:32 UTC / 2018-06-25 05:07:32 Local
Sunset 2018-06-25 10:31:40 UTC / 2018-06-25 19:31:40 Local
Advertisement - Login to hide

Runways

ID Width Length Bearing (true) Bearing (mag) Surface Threshold Offset Overrun Length
18 260 ft / 79 m 8,625 ft / 2,629 m 170.36° 177.93° Asphalt 0 ft / 0 m 0 ft / 0 m
36 260 ft / 79 m 8,625 ft / 2,629 m 350.36° 357.93° Asphalt 0 ft / 0 m 0 ft / 0 m

Approach Navaids

Runway Type Ident Frequency Range Bearing (true) Bearing (mag) Slope Elevation
18 Localiser IKQ 109.15 MHz 18 nm / 33 km 169.76° 177.34° - 54 ft / 16 m (AMSL)
18 Glidescope IKQ 109.15 MHz 10 nm / 19 km 170.36° 177.93° 3.00° 46 ft / 14 m (AMSL)

Map

Weather


0- 5 10 15 20 25 30 35+ Temperature / ° C

Clouds and Precipitation
Forecast for 2018-06-25 12:00 UTC. Updated 2 hours ago

Ground ~20,000 ft ~40,000 ft Winds

METAR

RJFR 251100Z 06009KT CAVOK 24/21 Q1011

TAF

TAF TAF RJFR 250509Z 2506/2612 07005KT 9999 FEW030 TEMPO 2603/2606 4000 -SHRA BR FEW005 SCT007 BKN009 BECMG 2606/2609 12006KT
Warning: Do not use this data for real-world aviation or navigation. No guarantee of current accuracy is given.